sensor_id;sensor_type;location;lat;lon;timestamp;temperature;humidity
24408;DHT22;12542;50.924;4.516;2022-07-10T00:00:48;15.80;99.90
24408;DHT22;12542;50.924;4.516;2022-07-10T00:03:14;15.90;99.90
24408;DHT22;12542;50.924;4.516;2022-07-10T00:05:41;15.80;99.90
24408;DHT22;12542;50.924;4.516;2022-07-10T00:08:08;15.80;99.90
24408;DHT22;12542;50.924;4.516;2022-07-10T00:10:34;15.70;99.90
24408;DHT22;12542;50.924;4.516;2022-07-10T00:12:59;15.70;99.90
24408;DHT22;12542;50.924;4.516;2022-07-10T00:15:28;15.70;99.90
24408;DHT22;12542;50.924;4.516;2022-07-10T00:17:54;15.60;99.90
24408;DHT22;12542;50.924;4.516;2022-07-10T00:20:20;15.60;99.90
24408;DHT22;12542;50.924;4.516;2022-07-10T00:22:45;15.60;99.90
24408;DHT22;12542;50.924;4.516;2022-07-10T00:25:12;15.50;99.90
24408;DHT22;12542;50.924;4.516;2022-07-10T00:27:38;15.50;99.90
24408;DHT22;12542;50.924;4.516;2022-07-10T00:30:05;15.50;99.90
24408;DHT22;12542;50.924;4.516;2022-07-10T00:32:33;15.50;99.90
24408;DHT22;12542;50.924;4.516;2022-07-10T00:34:59;15.50;99.90
24408;DHT22;12542;50.924;4.516;2022-07-10T00:37:27;15.50;99.90
24408;DHT22;12542;50.924;4.516;2022-07-10T00:39:55;15.40;99.90
24408;DHT22;12542;50.924;4.516;2022-07-10T00:42:21;15.30;99.90
24408;DHT22;12542;50.924;4.516;2022-07-10T00:44:47;15.20;99.90
24408;DHT22;12542;50.924;4.516;2022-07-10T00:47:12;15.30;99.90
24408;DHT22;12542;50.924;4.516;2022-07-10T00:49:42;15.20;99.90
24408;DHT22;12542;50.924;4.516;2022-07-10T00:52:11;15.20;99.90
24408;DHT22;12542;50.924;4.516;2022-07-10T00:54:38;15.20;99.90
24408;DHT22;12542;50.924;4.516;2022-07-10T00:57:07;15.20;99.90
24408;DHT22;12542;50.924;4.516;2022-07-10T00:59:37;15.10;99.90
24408;DHT22;12542;50.924;4.516;2022-07-10T01:02:04;15.10;99.90
24408;DHT22;12542;50.924;4.516;2022-07-10T01:04:31;15.10;99.90
24408;DHT22;12542;50.924;4.516;2022-07-10T01:06:58;15.00;99.90
24408;DHT22;12542;50.924;4.516;2022-07-10T01:09:26;15.00;99.90
24408;DHT22;12542;50.924;4.516;2022-07-10T01:11:54;15.00;99.90
24408;DHT22;12542;50.924;4.516;2022-07-10T01:14:24;14.90;99.90
24408;DHT22;12542;50.924;4.516;2022-07-10T01:16:50;14.90;99.90
24408;DHT22;12542;50.924;4.516;2022-07-10T01:19:16;14.80;99.90
24408;DHT22;12542;50.924;4.516;2022-07-10T01:21:42;14.80;99.90
24408;DHT22;12542;50.924;4.516;2022-07-10T01:24:09;14.80;99.90
24408;DHT22;12542;50.924;4.516;2022-07-10T01:26:35;14.80;99.90
24408;DHT22;12542;50.924;4.516;2022-07-10T01:29:06;14.70;99.90
24408;DHT22;12542;50.924;4.516;2022-07-10T01:31:33;14.60;99.90
24408;DHT22;12542;50.924;4.516;2022-07-10T01:34:07;14.60;99.90
24408;DHT22;12542;50.924;4.516;2022-07-10T01:36:33;14.60;99.90
24408;DHT22;12542;50.924;4.516;2022-07-10T01:39:00;14.60;99.90
24408;DHT22;12542;50.924;4.516;2022-07-10T01:41:26;14.50;99.90
24408;DHT22;12542;50.924;4.516;2022-07-10T01:43:53;14.50;99.90
24408;DHT22;12542;50.924;4.516;2022-07-10T01:46:21;14.50;99.90
24408;DHT22;12542;50.924;4.516;2022-07-10T01:48:49;14.50;99.90
24408;DHT22;12542;50.924;4.516;2022-07-10T01:51:15;14.50;99.90
24408;DHT22;12542;50.924;4.516;2022-07-10T01:53:41;14.40;99.90
24408;DHT22;12542;50.924;4.516;2022-07-10T01:56:09;14.40;99.90
24408;DHT22;12542;50.924;4.516;2022-07-10T01:58:36;14.40;99.90
24408;DHT22;12542;50.924;4.516;2022-07-10T02:01:03;14.40;99.90
24408;DHT22;12542;50.924;4.516;2022-07-10T02:03:29;14.40;99.90
24408;DHT22;12542;50.924;4.516;2022-07-10T02:06:13;14.40;99.90
24408;DHT22;12542;50.924;4.516;2022-07-10T02:08:39;14.40;99.90
24408;DHT22;12542;50.924;4.516;2022-07-10T02:11:05;14.40;99.90
24408;DHT22;12542;50.924;4.516;2022-07-10T02:13:33;14.30;99.90
24408;DHT22;12542;50.924;4.516;2022-07-10T02:15:58;14.40;99.90
24408;DHT22;12542;50.924;4.516;2022-07-10T02:18:24;14.30;99.90
24408;DHT22;12542;50.924;4.516;2022-07-10T02:20:51;14.30;99.90
24408;DHT22;12542;50.924;4.516;2022-07-10T02:23:17;14.20;99.90
24408;DHT22;12542;50.924;4.516;2022-07-10T02:25:43;14.20;99.90
24408;DHT22;12542;50.924;4.516;2022-07-10T02:28:09;14.20;99.90
24408;DHT22;12542;50.924;4.516;2022-07-10T02:30:35;14.20;99.90
24408;DHT22;12542;50.924;4.516;2022-07-10T02:33:01;14.20;99.90
24408;DHT22;12542;50.924;4.516;2022-07-10T02:35:26;14.20;99.90
24408;DHT22;12542;50.924;4.516;2022-07-10T02:37:57;14.20;99.90
24408;DHT22;12542;50.924;4.516;2022-07-10T02:40:23;14.20;99.90
24408;DHT22;12542;50.924;4.516;2022-07-10T02:42:48;14.10;99.90
24408;DHT22;12542;50.924;4.516;2022-07-10T02:45:15;14.10;99.90
24408;DHT22;12542;50.924;4.516;2022-07-10T02:47:41;14.10;99.90
24408;DHT22;12542;50.924;4.516;2022-07-10T02:50:09;14.20;99.90
24408;DHT22;12542;50.924;4.516;2022-07-10T02:52:35;14.10;99.90
24408;DHT22;12542;50.924;4.516;2022-07-10T02:55:05;14.10;99.90
24408;DHT22;12542;50.924;4.516;2022-07-10T02:57:31;14.10;99.90
24408;DHT22;12542;50.924;4.516;2022-07-10T02:59:57;14.10;99.90
24408;DHT22;12542;50.924;4.516;2022-07-10T03:02:23;14.10;99.90
24408;DHT22;12542;50.924;4.516;2022-07-10T03:04:52;14.10;99.90
24408;DHT22;12542;50.924;4.516;2022-07-10T03:07:20;14.10;99.90
24408;DHT22;12542;50.924;4.516;2022-07-10T03:09:47;14.00;99.90
24408;DHT22;12542;50.924;4.516;2022-07-10T03:12:13;14.00;99.90
24408;DHT22;12542;50.924;4.516;2022-07-10T03:14:39;14.00;99.90
24408;DHT22;12542;50.924;4.516;2022-07-10T03:17:05;14.00;99.90
24408;DHT22;12542;50.924;4.516;2022-07-10T03:19:31;14.00;99.90
24408;DHT22;12542;50.924;4.516;2022-07-10T03:21:59;13.90;99.90
24408;DHT22;12542;50.924;4.516;2022-07-10T03:24:25;13.90;99.90
24408;DHT22;12542;50.924;4.516;2022-07-10T03:26:51;13.90;99.90
24408;DHT22;12542;50.924;4.516;2022-07-10T03:29:20;13.90;99.90
24408;DHT22;12542;50.924;4.516;2022-07-10T03:31:45;13.90;99.90
24408;DHT22;12542;50.924;4.516;2022-07-10T03:34:11;13.80;99.90
24408;DHT22;12542;50.924;4.516;2022-07-10T03:36:37;13.90;99.90
24408;DHT22;12542;50.924;4.516;2022-07-10T03:39:02;13.90;99.90
24408;DHT22;12542;50.924;4.516;2022-07-10T03:41:28;13.90;99.90
24408;DHT22;12542;50.924;4.516;2022-07-10T03:43:54;13.90;99.90
24408;DHT22;12542;50.924;4.516;2022-07-10T03:46:20;13.90;99.90
24408;DHT22;12542;50.924;4.516;2022-07-10T03:48:49;13.90;99.90
24408;DHT22;12542;50.924;4.516;2022-07-10T03:51:14;13.90;99.90
24408;DHT22;12542;50.924;4.516;2022-07-10T03:53:40;13.80;99.90
24408;DHT22;12542;50.924;4.516;2022-07-10T03:56:06;13.80;99.90
24408;DHT22;12542;50.924;4.516;2022-07-10T03:58:32;13.80;99.90
24408;DHT22;12542;50.924;4.516;2022-07-10T04:00:58;13.90;99.90
24408;DHT22;12542;50.924;4.516;2022-07-10T04:03:24;13.90;99.90
24408;DHT22;12542;50.924;4.516;2022-07-10T04:05:50;13.90;99.90
24408;DHT22;12542;50.924;4.516;2022-07-10T04:08:15;13.90;99.90
24408;DHT22;12542;50.924;4.516;2022-07-10T04:10:41;14.00;99.90
24408;DHT22;12542;50.924;4.516;2022-07-10T04:13:06;14.00;99.90
24408;DHT22;12542;50.924;4.516;2022-07-10T04:15:32;14.00;99.90
24408;DHT22;12542;50.924;4.516;2022-07-10T04:18:00;13.90;99.90
24408;DHT22;12542;50.924;4.516;2022-07-10T04:20:26;13.90;99.90
24408;DHT22;12542;50.924;4.516;2022-07-10T04:22:52;14.10;99.90
24408;DHT22;12542;50.924;4.516;2022-07-10T04:25:18;14.40;99.90
24408;DHT22;12542;50.924;4.516;2022-07-10T04:27:44;14.70;99.90
24408;DHT22;12542;50.924;4.516;2022-07-10T04:30:12;15.90;99.90
24408;DHT22;12542;50.924;4.516;2022-07-10T04:32:38;17.60;99.90
24408;DHT22;12542;50.924;4.516;2022-07-10T04:35:04;19.30;99.90
24408;DHT22;12542;50.924;4.516;2022-07-10T04:37:30;20.70;99.90
24408;DHT22;12542;50.924;4.516;2022-07-10T04:39:56;21.70;99.90
24408;DHT22;12542;50.924;4.516;2022-07-10T04:42:24;21.70;99.40
24408;DHT22;12542;50.924;4.516;2022-07-10T04:44:50;20.90;99.90
24408;DHT22;12542;50.924;4.516;2022-07-10T04:47:15;20.00;99.90
24408;DHT22;12542;50.924;4.516;2022-07-10T04:49:41;19.00;99.90
24408;DHT22;12542;50.924;4.516;2022-07-10T04:52:07;18.30;99.90
24408;DHT22;12542;50.924;4.516;2022-07-10T04:54:35;17.80;99.90
24408;DHT22;12542;50.924;4.516;2022-07-10T04:57:01;17.30;99.90
24408;DHT22;12542;50.924;4.516;2022-07-10T04:59:27;17.40;99.90
24408;DHT22;12542;50.924;4.516;2022-07-10T05:01:53;17.30;99.90
24408;DHT22;12542;50.924;4.516;2022-07-10T05:04:22;17.20;99.90
24408;DHT22;12542;50.924;4.516;2022-07-10T05:06:48;17.00;99.90
24408;DHT22;12542;50.924;4.516;2022-07-10T05:09:16;16.80;99.90
24408;DHT22;12542;50.924;4.516;2022-07-10T05:11:45;16.70;99.90
24408;DHT22;12542;50.924;4.516;2022-07-10T05:14:11;16.50;99.90
24408;DHT22;12542;50.924;4.516;2022-07-10T05:16:37;16.30;99.90
24408;DHT22;12542;50.924;4.516;2022-07-10T05:19:03;16.20;99.90
24408;DHT22;12542;50.924;4.516;2022-07-10T05:21:29;16.10;99.90
24408;DHT22;12542;50.924;4.516;2022-07-10T05:23:55;16.10;99.90
24408;DHT22;12542;50.924;4.516;2022-07-10T05:26:20;16.00;99.90
24408;DHT22;12542;50.924;4.516;2022-07-10T05:28:46;15.80;99.90
24408;DHT22;12542;50.924;4.516;2022-07-10T05:31:12;15.80;99.90
24408;DHT22;12542;50.924;4.516;2022-07-10T05:33:38;15.80;99.90
24408;DHT22;12542;50.924;4.516;2022-07-10T05:36:06;15.70;99.90
24408;DHT22;12542;50.924;4.516;2022-07-10T05:38:32;15.60;99.90
24408;DHT22;12542;50.924;4.516;2022-07-10T05:41:00;15.60;99.90
24408;DHT22;12542;50.924;4.516;2022-07-10T05:43:26;15.70;99.90
24408;DHT22;12542;50.924;4.516;2022-07-10T05:45:51;15.80;99.90
24408;DHT22;12542;50.924;4.516;2022-07-10T05:48:17;15.80;99.90
24408;DHT22;12542;50.924;4.516;2022-07-10T05:50:45;15.90;99.90
24408;DHT22;12542;50.924;4.516;2022-07-10T05:53:10;16.00;99.90
24408;DHT22;12542;50.924;4.516;2022-07-10T05:55:36;16.10;99.90
24408;DHT22;12542;50.924;4.516;2022-07-10T05:58:02;16.20;99.90
24408;DHT22;12542;50.924;4.516;2022-07-10T06:00:28;16.30;99.90
24408;DHT22;12542;50.924;4.516;2022-07-10T06:02:54;16.40;99.90
24408;DHT22;12542;50.924;4.516;2022-07-10T06:05:20;16.50;99.90
24408;DHT22;12542;50.924;4.516;2022-07-10T06:07:45;16.60;99.90
24408;DHT22;12542;50.924;4.516;2022-07-10T06:10:11;16.80;99.90
24408;DHT22;12542;50.924;4.516;2022-07-10T06:12:38;17.00;99.90
24408;DHT22;12542;50.924;4.516;2022-07-10T06:15:04;17.10;99.90
24408;DHT22;12542;50.924;4.516;2022-07-10T06:17:30;17.20;99.90
24408;DHT22;12542;50.924;4.516;2022-07-10T06:19:58;17.30;99.90
24408;DHT22;12542;50.924;4.516;2022-07-10T06:22:24;17.50;99.90
24408;DHT22;12542;50.924;4.516;2022-07-10T06:24:56;17.50;99.90
24408;DHT22;12542;50.924;4.516;2022-07-10T06:27:22;17.60;99.90
24408;DHT22;12542;50.924;4.516;2022-07-10T06:29:48;17.60;99.90
24408;DHT22;12542;50.924;4.516;2022-07-10T06:32:14;17.80;99.90
24408;DHT22;12542;50.924;4.516;2022-07-10T06:34:39;17.90;99.90
24408;DHT22;12542;50.924;4.516;2022-07-10T06:37:06;18.00;99.90
24408;DHT22;12542;50.924;4.516;2022-07-10T06:39:32;18.00;99.90
24408;DHT22;12542;50.924;4.516;2022-07-10T06:42:05;18.10;99.90
24408;DHT22;12542;50.924;4.516;2022-07-10T06:44:31;18.10;99.90
24408;DHT22;12542;50.924;4.516;2022-07-10T06:46:59;18.20;99.90
24408;DHT22;12542;50.924;4.516;2022-07-10T06:49:47;18.50;99.90
24408;DHT22;12542;50.924;4.516;2022-07-10T06:52:16;18.70;99.90
24408;DHT22;12542;50.924;4.516;2022-07-10T06:54:42;18.80;99.90
24408;DHT22;12542;50.924;4.516;2022-07-10T06:57:11;18.90;99.90
24408;DHT22;12542;50.924;4.516;2022-07-10T06:59:38;19.00;99.90
24408;DHT22;12542;50.924;4.516;2022-07-10T07:02:05;19.10;99.90
24408;DHT22;12542;50.924;4.516;2022-07-10T07:04:31;19.20;99.90
24408;DHT22;12542;50.924;4.516;2022-07-10T07:06:57;19.20;99.90
24408;DHT22;12542;50.924;4.516;2022-07-10T07:09:23;19.40;99.90
24408;DHT22;12542;50.924;4.516;2022-07-10T07:11:49;19.50;99.90
24408;DHT22;12542;50.924;4.516;2022-07-10T07:14:14;19.60;99.90
24408;DHT22;12542;50.924;4.516;2022-07-10T07:16:40;19.60;99.90
24408;DHT22;12542;50.924;4.516;2022-07-10T07:19:11;19.60;99.90
24408;DHT22;12542;50.924;4.516;2022-07-10T07:21:43;19.80;99.90
24408;DHT22;12542;50.924;4.516;2022-07-10T07:24:27;19.90;99.90
24408;DHT22;12542;50.924;4.516;2022-07-10T07:26:53;20.10;99.90
24408;DHT22;12542;50.924;4.516;2022-07-10T07:29:19;20.20;99.90
24408;DHT22;12542;50.924;4.516;2022-07-10T07:31:48;20.40;99.90
24408;DHT22;12542;50.924;4.516;2022-07-10T07:34:13;20.30;99.90
24408;DHT22;12542;50.924;4.516;2022-07-10T07:36:40;20.40;99.90
24408;DHT22;12542;50.924;4.516;2022-07-10T07:39:05;20.70;99.90
24408;DHT22;12542;50.924;4.516;2022-07-10T07:41:31;21.30;99.90
24408;DHT22;12542;50.924;4.516;2022-07-10T07:43:57;21.70;99.90
24408;DHT22;12542;50.924;4.516;2022-07-10T07:46:23;22.30;99.90
24408;DHT22;12542;50.924;4.516;2022-07-10T07:48:52;22.60;99.90
24408;DHT22;12542;50.924;4.516;2022-07-10T07:51:17;23.00;99.90
24408;DHT22;12542;50.924;4.516;2022-07-10T07:53:43;23.40;99.90
24408;DHT22;12542;50.924;4.516;2022-07-10T07:56:09;24.00;97.80
24408;DHT22;12542;50.924;4.516;2022-07-10T07:58:37;24.00;96.90
24408;DHT22;12542;50.924;4.516;2022-07-10T08:01:05;24.40;96.90
24408;DHT22;12542;50.924;4.516;2022-07-10T08:03:30;24.60;95.90
24408;DHT22;12542;50.924;4.516;2022-07-10T08:05:58;24.50;95.40
24408;DHT22;12542;50.924;4.516;2022-07-10T08:08:24;25.00;95.20
24408;DHT22;12542;50.924;4.516;2022-07-10T08:10:53;25.40;94.50
24408;DHT22;12542;50.924;4.516;2022-07-10T08:13:18;25.50;93.70
24408;DHT22;12542;50.924;4.516;2022-07-10T08:15:44;25.20;92.80
24408;DHT22;12542;50.924;4.516;2022-07-10T08:18:13;25.00;92.80
24408;DHT22;12542;50.924;4.516;2022-07-10T08:20:39;24.60;93.40
24408;DHT22;12542;50.924;4.516;2022-07-10T08:23:05;24.50;93.30
24408;DHT22;12542;50.924;4.516;2022-07-10T08:25:31;24.70;93.90
24408;DHT22;12542;50.924;4.516;2022-07-10T08:28:02;24.90;95.00
24408;DHT22;12542;50.924;4.516;2022-07-10T08:30:29;25.30;95.40
24408;DHT22;12542;50.924;4.516;2022-07-10T08:32:55;25.70;94.10
24408;DHT22;12542;50.924;4.516;2022-07-10T08:35:21;26.00;92.60
24408;DHT22;12542;50.924;4.516;2022-07-10T08:37:47;26.10;91.30
24408;DHT22;12542;50.924;4.516;2022-07-10T08:40:14;25.00;92.20
24408;DHT22;12542;50.924;4.516;2022-07-10T08:42:42;25.10;91.70
24408;DHT22;12542;50.924;4.516;2022-07-10T08:45:10;25.20;91.70
24408;DHT22;12542;50.924;4.516;2022-07-10T08:47:39;25.40;91.00
24408;DHT22;12542;50.924;4.516;2022-07-10T08:50:17;25.10;91.60
24408;DHT22;12542;50.924;4.516;2022-07-10T08:53:09;25.10;92.70
24408;DHT22;12542;50.924;4.516;2022-07-10T08:55:39;24.80;92.80
24408;DHT22;12542;50.924;4.516;2022-07-10T08:58:08;24.90;92.40
24408;DHT22;12542;50.924;4.516;2022-07-10T09:00:37;25.00;93.60
24408;DHT22;12542;50.924;4.516;2022-07-10T09:03:03;25.10;91.80
24408;DHT22;12542;50.924;4.516;2022-07-10T09:05:29;25.10;92.40
24408;DHT22;12542;50.924;4.516;2022-07-10T09:07:55;25.00;92.60
24408;DHT22;12542;50.924;4.516;2022-07-10T09:10:25;25.40;92.80
24408;DHT22;12542;50.924;4.516;2022-07-10T09:15:20;25.80;90.20
24408;DHT22;12542;50.924;4.516;2022-07-10T09:17:55;25.40;90.80
24408;DHT22;12542;50.924;4.516;2022-07-10T09:20:31;25.00;90.90
24408;DHT22;12542;50.924;4.516;2022-07-10T09:22:59;25.20;91.70
24408;DHT22;12542;50.924;4.516;2022-07-10T09:25:34;25.40;92.20
24408;DHT22;12542;50.924;4.516;2022-07-10T09:28:00;25.70;91.20
24408;DHT22;12542;50.924;4.516;2022-07-10T09:30:35;25.50;92.40
24408;DHT22;12542;50.924;4.516;2022-07-10T09:41:31;25.50;91.30
24408;DHT22;12542;50.924;4.516;2022-07-10T09:44:01;25.20;91.20
24408;DHT22;12542;50.924;4.516;2022-07-10T09:46:38;25.90;91.30
24408;DHT22;12542;50.924;4.516;2022-07-10T09:49:14;25.90;92.30
24408;DHT22;12542;50.924;4.516;2022-07-10T09:51:45;26.10;91.70
24408;DHT22;12542;50.924;4.516;2022-07-10T09:54:12;25.80;90.90
24408;DHT22;12542;50.924;4.516;2022-07-10T09:56:41;26.40;90.50
24408;DHT22;12542;50.924;4.516;2022-07-10T09:59:15;27.20;90.60
24408;DHT22;12542;50.924;4.516;2022-07-10T10:01:47;27.90;89.00
24408;DHT22;12542;50.924;4.516;2022-07-10T10:04:15;28.00;89.30
24408;DHT22;12542;50.924;4.516;2022-07-10T10:06:42;27.80;88.30
24408;DHT22;12542;50.924;4.516;2022-07-10T10:09:29;28.10;88.10
24408;DHT22;12542;50.924;4.516;2022-07-10T10:12:42;28.00;86.90
24408;DHT22;12542;50.924;4.516;2022-07-10T10:15:10;27.50;86.60
24408;DHT22;12542;50.924;4.516;2022-07-10T10:17:38;27.30;85.20
24408;DHT22;12542;50.924;4.516;2022-07-10T10:20:06;26.60;87.60
24408;DHT22;12542;50.924;4.516;2022-07-10T10:22:52;26.20;90.80
24408;DHT22;12542;50.924;4.516;2022-07-10T10:25:24;25.80;90.70
24408;DHT22;12542;50.924;4.516;2022-07-10T10:27:51;25.60;90.80
24408;DHT22;12542;50.924;4.516;2022-07-10T10:30:19;25.60;91.50
24408;DHT22;12542;50.924;4.516;2022-07-10T10:32:45;25.50;91.50
24408;DHT22;12542;50.924;4.516;2022-07-10T10:35:11;25.40;91.80
24408;DHT22;12542;50.924;4.516;2022-07-10T10:37:40;25.30;93.10
24408;DHT22;12542;50.924;4.516;2022-07-10T10:40:32;25.30;92.00
24408;DHT22;12542;50.924;4.516;2022-07-10T10:42:58;25.30;92.40
24408;DHT22;12542;50.924;4.516;2022-07-10T10:45:40;25.20;93.10
24408;DHT22;12542;50.924;4.516;2022-07-10T10:48:08;25.20;92.90
24408;DHT22;12542;50.924;4.516;2022-07-10T10:50:46;25.10;93.00
24408;DHT22;12542;50.924;4.516;2022-07-10T10:53:21;25.00;93.40
24408;DHT22;12542;50.924;4.516;2022-07-10T11:01:05;26.10;91.40
24408;DHT22;12542;50.924;4.516;2022-07-10T11:03:34;25.90;90.60
24408;DHT22;12542;50.924;4.516;2022-07-10T11:06:00;26.10;91.50
24408;DHT22;12542;50.924;4.516;2022-07-10T11:08:37;25.90;90.80
24408;DHT22;12542;50.924;4.516;2022-07-10T11:13:58;25.90;90.50
24408;DHT22;12542;50.924;4.516;2022-07-10T11:16:24;25.90;90.80
24408;DHT22;12542;50.924;4.516;2022-07-10T11:18:56;25.80;91.90
24408;DHT22;12542;50.924;4.516;2022-07-10T11:21:27;25.80;91.90
24408;DHT22;12542;50.924;4.516;2022-07-10T11:24:10;25.90;92.00
24408;DHT22;12542;50.924;4.516;2022-07-10T11:29:39;26.30;90.90
24408;DHT22;12542;50.924;4.516;2022-07-10T11:32:05;26.20;90.20
24408;DHT22;12542;50.924;4.516;2022-07-10T11:34:36;26.40;91.40
24408;DHT22;12542;50.924;4.516;2022-07-10T11:37:13;26.80;91.40
24408;DHT22;12542;50.924;4.516;2022-07-10T11:39:40;27.30;90.10
24408;DHT22;12542;50.924;4.516;2022-07-10T11:42:06;27.10;90.70
24408;DHT22;12542;50.924;4.516;2022-07-10T11:44:32;27.30;88.50
24408;DHT22;12542;50.924;4.516;2022-07-10T11:46:58;27.30;90.30
24408;DHT22;12542;50.924;4.516;2022-07-10T11:49:25;27.40;87.40
24408;DHT22;12542;50.924;4.516;2022-07-10T11:51:56;27.30;89.50
24408;DHT22;12542;50.924;4.516;2022-07-10T11:54:28;27.30;88.90
24408;DHT22;12542;50.924;4.516;2022-07-10T11:56:54;27.00;89.10
24408;DHT22;12542;50.924;4.516;2022-07-10T11:59:27;26.60;88.80
24408;DHT22;12542;50.924;4.516;2022-07-10T12:01:56;26.70;88.20
24408;DHT22;12542;50.924;4.516;2022-07-10T12:04:23;26.50;88.80
24408;DHT22;12542;50.924;4.516;2022-07-10T12:06:52;26.50;90.00
24408;DHT22;12542;50.924;4.516;2022-07-10T12:09:21;26.80;91.60
24408;DHT22;12542;50.924;4.516;2022-07-10T12:12:05;27.00;90.70
24408;DHT22;12542;50.924;4.516;2022-07-10T12:14:32;27.10;90.70
24408;DHT22;12542;50.924;4.516;2022-07-10T12:17:01;26.80;90.60
24408;DHT22;12542;50.924;4.516;2022-07-10T12:19:36;26.90;91.50
24408;DHT22;12542;50.924;4.516;2022-07-10T12:22:07;27.30;90.20
24408;DHT22;12542;50.924;4.516;2022-07-10T12:24:34;27.50;88.10
24408;DHT22;12542;50.924;4.516;2022-07-10T12:27:01;27.50;86.10
24408;DHT22;12542;50.924;4.516;2022-07-10T12:29:28;27.40;90.60
24408;DHT22;12542;50.924;4.516;2022-07-10T12:31:56;27.40;88.10
24408;DHT22;12542;50.924;4.516;2022-07-10T12:34:36;27.20;90.10
24408;DHT22;12542;50.924;4.516;2022-07-10T12:37:12;27.10;87.80
24408;DHT22;12542;50.924;4.516;2022-07-10T12:39:49;27.30;87.60
24408;DHT22;12542;50.924;4.516;2022-07-10T12:42:25;27.30;87.50
24408;DHT22;12542;50.924;4.516;2022-07-10T12:44:54;27.40;89.50
24408;DHT22;12542;50.924;4.516;2022-07-10T12:47:22;27.50;87.20
24408;DHT22;12542;50.924;4.516;2022-07-10T12:52:26;27.30;87.60
24408;DHT22;12542;50.924;4.516;2022-07-10T12:55:34;27.10;88.00
24408;DHT22;12542;50.924;4.516;2022-07-10T12:58:05;27.20;88.90
24408;DHT22;12542;50.924;4.516;2022-07-10T13:00:35;27.10;89.00
24408;DHT22;12542;50.924;4.516;2022-07-10T13:03:05;27.20;88.00
24408;DHT22;12542;50.924;4.516;2022-07-10T13:05:37;27.30;90.40
24408;DHT22;12542;50.924;4.516;2022-07-10T13:08:11;27.50;87.50
24408;DHT22;12542;50.924;4.516;2022-07-10T13:10:43;28.00;86.20
24408;DHT22;12542;50.924;4.516;2022-07-10T13:13:09;28.10;84.00
24408;DHT22;12542;50.924;4.516;2022-07-10T13:15:35;28.00;84.50
24408;DHT22;12542;50.924;4.516;2022-07-10T13:18:13;28.10;87.60
24408;DHT22;12542;50.924;4.516;2022-07-10T13:20:43;28.10;86.20
24408;DHT22;12542;50.924;4.516;2022-07-10T13:23:08;28.10;86.00
24408;DHT22;12542;50.924;4.516;2022-07-10T13:25:34;28.30;86.80
24408;DHT22;12542;50.924;4.516;2022-07-10T13:28:00;28.10;85.70
24408;DHT22;12542;50.924;4.516;2022-07-10T13:30:28;27.90;84.60
24408;DHT22;12542;50.924;4.516;2022-07-10T13:32:54;28.10;83.70
24408;DHT22;12542;50.924;4.516;2022-07-10T13:35:20;28.20;85.80
24408;DHT22;12542;50.924;4.516;2022-07-10T13:37:46;28.30;85.70
24408;DHT22;12542;50.924;4.516;2022-07-10T13:40:14;28.40;85.10
24408;DHT22;12542;50.924;4.516;2022-07-10T13:42:40;27.90;85.10
24408;DHT22;12542;50.924;4.516;2022-07-10T13:45:06;27.80;85.80
24408;DHT22;12542;50.924;4.516;2022-07-10T13:47:34;28.00;86.00
24408;DHT22;12542;50.924;4.516;2022-07-10T13:50:00;28.10;84.80
24408;DHT22;12542;50.924;4.516;2022-07-10T13:52:26;28.00;86.20
24408;DHT22;12542;50.924;4.516;2022-07-10T13:54:52;27.40;86.80
24408;DHT22;12542;50.924;4.516;2022-07-10T13:57:18;27.30;87.80
24408;DHT22;12542;50.924;4.516;2022-07-10T13:59:43;27.60;85.20
24408;DHT22;12542;50.924;4.516;2022-07-10T14:02:11;27.50;85.50
24408;DHT22;12542;50.924;4.516;2022-07-10T14:04:39;26.80;86.70
24408;DHT22;12542;50.924;4.516;2022-07-10T14:07:07;26.60;88.30
24408;DHT22;12542;50.924;4.516;2022-07-10T14:09:35;26.50;88.20
24408;DHT22;12542;50.924;4.516;2022-07-10T14:12:03;27.00;86.00
24408;DHT22;12542;50.924;4.516;2022-07-10T14:14:29;27.30;87.60
24408;DHT22;12542;50.924;4.516;2022-07-10T14:16:55;27.50;87.80
24408;DHT22;12542;50.924;4.516;2022-07-10T14:19:21;27.40;89.40
24408;DHT22;12542;50.924;4.516;2022-07-10T14:21:47;27.60;87.40
24408;DHT22;12542;50.924;4.516;2022-07-10T14:24:14;27.70;85.10
24408;DHT22;12542;50.924;4.516;2022-07-10T14:26:40;27.50;85.70
24408;DHT22;12542;50.924;4.516;2022-07-10T14:29:05;27.80;89.90
24408;DHT22;12542;50.924;4.516;2022-07-10T14:31:32;28.20;87.40
24408;DHT22;12542;50.924;4.516;2022-07-10T14:33:58;28.00;87.40
24408;DHT22;12542;50.924;4.516;2022-07-10T14:36:27;28.00;87.20
24408;DHT22;12542;50.924;4.516;2022-07-10T14:38:54;28.10;87.90
24408;DHT22;12542;50.924;4.516;2022-07-10T14:41:20;28.20;85.20
24408;DHT22;12542;50.924;4.516;2022-07-10T14:43:48;27.90;86.00
24408;DHT22;12542;50.924;4.516;2022-07-10T14:46:14;27.60;85.60
24408;DHT22;12542;50.924;4.516;2022-07-10T14:48:40;27.50;86.40
24408;DHT22;12542;50.924;4.516;2022-07-10T14:51:08;27.10;85.90
24408;DHT22;12542;50.924;4.516;2022-07-10T14:53:37;27.10;87.90
24408;DHT22;12542;50.924;4.516;2022-07-10T14:56:08;27.10;86.80
24408;DHT22;12542;50.924;4.516;2022-07-10T14:58:34;27.20;88.20
24408;DHT22;12542;50.924;4.516;2022-07-10T15:01:01;27.10;86.80
24408;DHT22;12542;50.924;4.516;2022-07-10T15:03:30;27.00;86.60
24408;DHT22;12542;50.924;4.516;2022-07-10T15:05:58;27.10;86.70
24408;DHT22;12542;50.924;4.516;2022-07-10T15:08:24;27.00;85.40
24408;DHT22;12542;50.924;4.516;2022-07-10T15:10:52;26.90;86.90
24408;DHT22;12542;50.924;4.516;2022-07-10T15:13:20;26.90;87.50
24408;DHT22;12542;50.924;4.516;2022-07-10T15:15:46;27.10;86.20
24408;DHT22;12542;50.924;4.516;2022-07-10T15:18:14;27.20;85.10
24408;DHT22;12542;50.924;4.516;2022-07-10T15:20:40;27.10;85.90
24408;DHT22;12542;50.924;4.516;2022-07-10T15:23:09;26.90;84.70
24408;DHT22;12542;50.924;4.516;2022-07-10T15:25:39;26.70;86.30
24408;DHT22;12542;50.924;4.516;2022-07-10T15:28:06;27.00;86.60
24408;DHT22;12542;50.924;4.516;2022-07-10T15:30:36;27.40;84.20
24408;DHT22;12542;50.924;4.516;2022-07-10T15:33:03;27.80;83.10
24408;DHT22;12542;50.924;4.516;2022-07-10T15:35:29;27.80;83.40
24408;DHT22;12542;50.924;4.516;2022-07-10T15:37:58;27.70;80.60
24408;DHT22;12542;50.924;4.516;2022-07-10T15:40:28;27.60;83.10
24408;DHT22;12542;50.924;4.516;2022-07-10T15:42:54;27.40;83.30
24408;DHT22;12542;50.924;4.516;2022-07-10T15:45:22;27.20;83.80
24408;DHT22;12542;50.924;4.516;2022-07-10T15:47:48;27.10;85.20
24408;DHT22;12542;50.924;4.516;2022-07-10T15:50:16;27.10;85.30
24408;DHT22;12542;50.924;4.516;2022-07-10T15:52:42;27.00;85.90
24408;DHT22;12542;50.924;4.516;2022-07-10T15:55:11;27.00;86.40
24408;DHT22;12542;50.924;4.516;2022-07-10T15:57:39;26.60;85.80
24408;DHT22;12542;50.924;4.516;2022-07-10T16:00:07;26.60;85.90